createdAt,value
2018-09-06T00:02:12.158Z,10.77
2018-09-06T00:04:39.263Z,10.33
2018-09-06T00:07:06.537Z,10.80
2018-09-06T00:09:33.643Z,10.77
2018-09-06T00:12:00.740Z,12.93
2018-09-06T00:14:27.969Z,12.17
2018-09-06T00:16:55.174Z,10.97
2018-09-06T00:19:22.403Z,11.77
2018-09-06T00:21:49.575Z,12.37
2018-09-06T00:24:16.709Z,11.97
2018-09-06T00:26:43.979Z,15.97
2018-09-06T00:29:11.134Z,11.77
2018-09-06T00:31:38.398Z,12.03
2018-09-06T00:34:05.816Z,11.03
2018-09-06T00:36:32.943Z,11.77
2018-09-06T00:39:00.112Z,11.57
2018-09-06T00:41:27.214Z,10.87
2018-09-06T00:43:54.506Z,11.50
2018-09-06T00:46:21.637Z,12.97
2018-09-06T00:48:48.761Z,12.23
2018-09-06T00:51:16.065Z,11.90
2018-09-06T00:53:43.165Z,11.60
2018-09-06T00:56:10.413Z,13.00
2018-09-06T00:58:37.753Z,12.17
2018-09-06T01:01:11.982Z,13.30
2018-09-06T01:03:39.235Z,11.63
2018-09-06T01:06:06.683Z,12.33
2018-09-06T01:08:33.948Z,12.30
2018-09-06T01:11:01.092Z,12.47
2018-09-06T01:13:28.253Z,12.70
2018-09-06T01:15:55.475Z,12.40
2018-09-06T01:18:22.680Z,12.27
2018-09-06T01:20:49.979Z,13.90
2018-09-06T01:23:20.395Z,12.70
2018-09-06T01:25:48.046Z,13.17
2018-09-06T01:28:16.378Z,12.83
2018-09-06T01:30:43.503Z,13.23
2018-09-06T01:33:10.853Z,13.30
2018-09-06T01:35:42.535Z,12.77
2018-09-06T01:38:09.623Z,14.13
2018-09-06T01:40:36.897Z,13.80
2018-09-06T01:43:04.037Z,12.80
2018-09-06T01:45:31.365Z,13.17
2018-09-06T01:47:58.515Z,13.43
2018-09-06T01:50:27.682Z,13.77
2018-09-06T01:52:54.870Z,12.73
2018-09-06T01:55:22.093Z,13.23
2018-09-06T01:57:49.320Z,12.93
2018-09-06T02:00:16.434Z,13.47
2018-09-06T02:02:43.615Z,13.27
2018-09-06T02:05:14.613Z,13.67
2018-09-06T02:07:41.723Z,14.57
2018-09-06T02:10:08.967Z,14.13
2018-09-06T02:12:36.075Z,13.73
2018-09-06T02:15:03.235Z,14.50
2018-09-06T02:17:30.443Z,14.83
2018-09-06T02:19:57.578Z,16.17
2018-09-06T02:22:26.889Z,14.00
2018-09-06T02:24:54.053Z,13.43
2018-09-06T02:27:21.175Z,14.97
2018-09-06T02:29:48.478Z,14.93
2018-09-06T02:32:15.629Z,14.80
2018-09-06T02:34:42.870Z,14.23
2018-09-06T02:37:09.994Z,14.10
2018-09-06T02:39:37.151Z,14.57
2018-09-06T02:42:04.419Z,15.53
2018-09-06T02:44:31.535Z,16.47
2018-09-06T02:46:58.832Z,16.30
2018-09-06T02:49:31.628Z,16.00
2018-09-06T02:51:58.772Z,16.77
2018-09-06T02:54:26.037Z,15.67
2018-09-06T02:56:53.145Z,16.37
2018-09-06T02:59:20.468Z,16.53
2018-09-06T03:02:00.374Z,16.27
2018-09-06T03:04:27.584Z,16.50
2018-09-06T03:06:54.788Z,16.90
2018-09-06T03:09:22.720Z,15.67
2018-09-06T03:11:55.893Z,16.10
2018-09-06T03:14:23.032Z,16.20
2018-09-06T03:16:50.199Z,19.07
2018-09-06T03:19:17.444Z,18.13
2018-09-06T03:21:44.689Z,15.63
2018-09-06T03:24:11.807Z,17.53
2018-09-06T03:26:38.961Z,16.73
2018-09-06T03:29:06.190Z,15.97
2018-09-06T03:31:33.322Z,17.10
2018-09-06T03:34:00.604Z,16.57
2018-09-06T03:36:27.746Z,17.10
2018-09-06T03:38:54.848Z,15.90
2018-09-06T03:41:22.092Z,16.40
2018-09-06T03:43:49.324Z,16.17
2018-09-06T03:46:16.719Z,16.63
2018-09-06T03:48:43.860Z,16.70
2018-09-06T03:51:10.967Z,16.73
2018-09-06T03:53:38.167Z,17.33
2018-09-06T03:56:05.409Z,18.10
2018-09-06T03:58:32.703Z,16.57
2018-09-06T04:00:59.935Z,17.73
2018-09-06T04:03:27.115Z,16.93
2018-09-06T04:05:54.275Z,16.50
2018-09-06T04:08:21.388Z,17.07
2018-09-06T04:10:48.652Z,17.30
2018-09-06T04:13:15.753Z,17.43
2018-09-06T04:15:42.849Z,17.27
2018-09-06T04:18:10.168Z,17.23
2018-09-06T04:20:37.290Z,17.90
2018-09-06T04:23:04.556Z,17.93
2018-09-06T04:25:31.740Z,16.40
2018-09-06T04:27:58.837Z,17.63
2018-09-06T04:30:25.985Z,16.93
2018-09-06T04:32:53.111Z,17.03
2018-09-06T04:35:20.379Z,17.33
2018-09-06T04:37:47.451Z,17.73
2018-09-06T04:40:14.667Z,17.60
2018-09-06T04:42:41.845Z,18.23
2018-09-06T04:45:08.980Z,18.47
2018-09-06T04:47:36.272Z,19.80
2018-09-06T04:50:03.448Z,22.63
2018-09-06T04:52:30.605Z,20.90
2018-09-06T04:54:58.234Z,21.30
2018-09-06T04:57:25.703Z,23.13
2018-09-06T04:59:52.987Z,21.77
2018-09-06T05:02:20.632Z,22.47
2018-09-06T05:04:47.759Z,21.30
2018-09-06T05:07:14.907Z,22.27
2018-09-06T05:09:42.076Z,25.67
2018-09-06T05:12:09.577Z,20.67
2018-09-06T05:14:36.739Z,20.07
2018-09-06T05:17:03.947Z,21.47
2018-09-06T05:19:31.244Z,21.30
2018-09-06T05:21:58.401Z,24.90
2018-09-06T05:24:25.661Z,20.73
2018-09-06T05:26:52.831Z,19.77
2018-09-06T05:29:19.927Z,22.17
2018-09-06T05:31:47.169Z,21.87
2018-09-06T05:34:14.303Z,20.27
2018-09-06T05:36:41.535Z,23.90
2018-09-06T05:39:10.159Z,21.00
2018-09-06T05:41:37.697Z,20.67
2018-09-06T05:44:05.052Z,20.20
2018-09-06T05:46:33.292Z,19.47
2018-09-06T05:49:00.639Z,18.50
2018-09-06T05:51:27.782Z,19.23
2018-09-06T05:53:54.972Z,18.23
2018-09-06T05:56:22.167Z,16.83
2018-09-06T05:58:49.298Z,17.47
2018-09-06T06:01:16.617Z,18.97
2018-09-06T06:03:44.430Z,18.67
2018-09-06T06:06:11.539Z,18.70
2018-09-06T06:08:41.056Z,22.03
2018-09-06T06:11:08.232Z,18.83
2018-09-06T06:13:35.494Z,18.07
2018-09-06T06:16:02.782Z,19.87
2018-09-06T06:18:29.823Z,20.40
2018-09-06T06:20:57.038Z,20.73
2018-09-06T06:23:24.305Z,20.17
2018-09-06T06:25:51.578Z,19.47
2018-09-06T06:28:18.771Z,20.07
2018-09-06T06:30:45.932Z,21.00
2018-09-06T06:33:13.116Z,19.70
2018-09-06T06:35:40.264Z,20.00
2018-09-06T06:38:07.578Z,20.63
2018-09-06T06:40:34.713Z,21.07
2018-09-06T06:43:01.828Z,19.73
2018-09-06T06:45:29.063Z,21.70
2018-09-06T06:47:56.196Z,20.43
2018-09-06T06:50:23.581Z,18.87
2018-09-06T06:52:50.725Z,23.27
2018-09-06T06:55:17.879Z,20.53
2018-09-06T06:57:45.090Z,19.77
2018-09-06T07:00:12.380Z,18.40
2018-09-06T07:02:39.609Z,19.60
2018-09-06T07:05:06.741Z,19.90
2018-09-06T07:07:33.940Z,18.90
2018-09-06T07:10:01.180Z,19.80
2018-09-06T07:12:28.264Z,19.33
2018-09-06T07:14:55.539Z,18.70
2018-09-06T07:17:22.652Z,19.20
2018-09-06T07:19:49.868Z,19.53
2018-09-06T07:22:17.102Z,19.20
2018-09-06T07:24:44.329Z,18.77
2018-09-06T07:27:11.563Z,18.23
2018-09-06T07:29:38.726Z,18.30
2018-09-06T07:32:05.936Z,18.60
2018-09-06T07:34:33.103Z,17.50
2018-09-06T07:37:00.268Z,17.93
2018-09-06T07:39:27.535Z,17.33
2018-09-06T07:41:54.648Z,17.50
2018-09-06T07:44:21.854Z,18.80
2018-09-06T07:46:49.063Z,18.10
2018-09-06T07:49:16.186Z,17.60
2018-09-06T07:51:43.501Z,16.80
2018-09-06T07:54:10.597Z,17.67
2018-09-06T07:56:37.699Z,17.00
2018-09-06T07:59:06.992Z,19.57
2018-09-06T08:01:34.133Z,16.73
2018-09-06T08:04:01.621Z,17.33
2018-09-06T08:06:28.834Z,17.90
2018-09-06T08:08:55.943Z,17.87
2018-09-06T08:11:23.098Z,16.50
2018-09-06T08:13:50.244Z,18.57
2018-09-06T08:16:17.628Z,17.60
2018-09-06T08:18:44.745Z,15.40
2018-09-06T08:21:11.962Z,14.23
2018-09-06T08:23:39.163Z,14.23
2018-09-06T08:26:06.418Z,14.60
2018-09-06T08:28:40.242Z,14.93
2018-09-06T08:31:07.826Z,13.97
2018-09-06T08:33:35.141Z,13.80
2018-09-06T08:36:02.364Z,15.17
2018-09-06T08:38:29.495Z,13.40
2018-09-06T08:40:56.746Z,13.43
2018-09-06T08:43:23.934Z,14.13
2018-09-06T08:45:51.055Z,13.90
2018-09-06T08:48:18.283Z,12.50
2018-09-06T08:50:45.462Z,13.30
2018-09-06T08:53:12.736Z,13.40
2018-09-06T08:55:39.891Z,12.80
2018-09-06T08:58:07.102Z,12.23
2018-09-06T09:00:36.880Z,13.03
2018-09-06T09:03:04.794Z,12.53
2018-09-06T09:05:32.099Z,12.53
2018-09-06T09:07:59.569Z,13.20
2018-09-06T09:10:26.801Z,13.00
2018-09-06T09:12:54.043Z,12.20
2018-09-06T09:15:21.156Z,11.37
2018-09-06T09:17:48.409Z,12.37
2018-09-06T09:20:16.193Z,13.23
2018-09-06T09:22:43.428Z,11.87
2018-09-06T09:25:10.618Z,11.03
2018-09-06T09:27:37.836Z,10.87
2018-09-06T09:30:05.189Z,11.57
2018-09-06T09:32:34.253Z,11.47
2018-09-06T09:35:01.463Z,10.90
2018-09-06T09:37:28.712Z,12.47
2018-09-06T09:39:55.831Z,11.20
2018-09-06T09:42:23.180Z,12.53
2018-09-06T09:44:50.314Z,11.50
2018-09-06T09:49:44.317Z,11.50
2018-09-06T09:52:11.433Z,11.50
2018-09-06T09:54:38.688Z,10.30
2018-09-06T09:57:05.955Z,9.73
2018-09-06T09:59:33.096Z,9.63
2018-09-06T10:02:06.140Z,9.57
2018-09-06T10:04:39.253Z,10.20
2018-09-06T10:07:12.990Z,9.60
2018-09-06T10:09:40.126Z,9.43
2018-09-06T10:12:07.429Z,11.63
2018-09-06T10:14:34.607Z,9.20
2018-09-06T10:17:01.764Z,11.23
2018-09-06T10:19:29.293Z,11.13
2018-09-06T10:21:56.507Z,10.80
2018-09-06T10:24:23.680Z,9.07
2018-09-06T10:26:50.857Z,9.00
2018-09-06T10:29:18.046Z,9.20
2018-09-06T10:31:45.293Z,9.37
2018-09-06T10:34:12.398Z,10.40
2018-09-06T10:36:39.621Z,9.63
2018-09-06T10:39:08.095Z,11.37
2018-09-06T10:41:35.239Z,8.67
2018-09-06T10:44:02.616Z,9.13
2018-09-06T10:46:30.919Z,8.60
2018-09-06T10:48:58.330Z,8.53
2018-09-06T10:51:26.040Z,9.00
2018-09-06T10:53:53.363Z,9.70
2018-09-06T10:56:21.882Z,8.43
2018-09-06T10:58:49.384Z,9.33
2018-09-06T11:01:21.353Z,8.73
2018-09-06T11:03:49.749Z,8.73
2018-09-06T11:06:16.940Z,9.13
2018-09-06T11:08:44.224Z,8.73
2018-09-06T11:11:11.437Z,9.40
2018-09-06T11:13:38.676Z,8.63
2018-09-06T11:16:05.844Z,9.40
2018-09-06T11:18:32.999Z,8.40
2018-09-06T11:21:00.750Z,10.03
2018-09-06T11:23:28.124Z,10.53
2018-09-06T11:25:55.327Z,8.83
2018-09-06T11:28:22.534Z,10.43
2018-09-06T11:30:49.630Z,9.57
2018-09-06T11:33:16.984Z,8.63
2018-09-06T11:35:44.356Z,8.53
2018-09-06T11:38:11.537Z,8.70
2018-09-06T11:40:42.759Z,8.53
2018-09-06T11:43:09.915Z,9.17
2018-09-06T11:45:37.195Z,8.67
2018-09-06T11:48:05.924Z,8.67
2018-09-06T11:50:33.199Z,8.90
2018-09-06T11:53:00.321Z,8.80
2018-09-06T11:55:27.497Z,8.80
2018-09-06T11:57:54.756Z,8.33
2018-09-06T12:00:22.793Z,8.40
2018-09-06T12:02:50.034Z,8.50
2018-09-06T12:05:17.164Z,8.90
2018-09-06T12:07:44.300Z,8.37
2018-09-06T12:10:11.667Z,8.70
2018-09-06T12:12:38.852Z,9.43
2018-09-06T12:15:06.051Z,8.97
2018-09-06T12:17:33.265Z,9.27
2018-09-06T12:20:00.448Z,8.47
2018-09-06T12:22:27.693Z,9.20
2018-09-06T12:24:54.930Z,8.90
2018-09-06T12:27:22.169Z,9.13
2018-09-06T12:29:49.454Z,9.63
2018-09-06T12:32:16.733Z,9.27
2018-09-06T12:34:43.992Z,9.97
2018-09-06T12:37:13.166Z,10.07
2018-09-06T12:39:41.684Z,8.23
2018-09-06T12:42:08.848Z,10.00
2018-09-06T12:44:36.059Z,8.93
2018-09-06T12:47:03.509Z,8.57
2018-09-06T12:49:30.759Z,8.87
2018-09-06T12:51:57.939Z,9.07
2018-09-06T12:54:25.113Z,9.73
2018-09-06T12:56:52.267Z,9.20
2018-09-06T12:59:19.645Z,8.90
2018-09-06T13:01:46.829Z,9.20
2018-09-06T13:04:13.996Z,9.90
2018-09-06T13:06:41.189Z,9.17
2018-09-06T13:09:08.670Z,8.87
2018-09-06T13:11:36.457Z,9.20
2018-09-06T13:14:03.689Z,8.27
2018-09-06T13:16:30.920Z,9.17
2018-09-06T13:18:58.045Z,9.03
2018-09-06T13:21:25.175Z,8.90
2018-09-06T13:23:52.435Z,8.83
2018-09-06T13:26:19.582Z,8.40
2018-09-06T13:28:46.780Z,12.03
2018-09-06T13:31:14.004Z,8.93
2018-09-06T13:33:41.146Z,8.77
2018-09-06T13:36:08.639Z,9.33
2018-09-06T13:38:35.824Z,9.33
2018-09-06T13:41:03.027Z,9.37
2018-09-06T13:43:30.199Z,10.17
2018-09-06T13:45:57.332Z,10.30
2018-09-06T13:48:24.561Z,9.37
2018-09-06T13:50:51.695Z,9.40
2018-09-06T13:53:18.915Z,9.00
2018-09-06T13:55:46.087Z,9.53
2018-09-06T13:58:13.205Z,9.17
2018-09-06T14:00:40.486Z,9.37
2018-09-06T14:03:07.581Z,9.10
2018-09-06T14:05:34.755Z,8.83
2018-09-06T14:08:01.929Z,9.93
2018-09-06T14:10:29.045Z,9.63
2018-09-06T14:12:56.301Z,10.00
2018-09-06T14:15:23.609Z,9.00
2018-09-06T14:17:50.841Z,8.90
2018-09-06T14:20:17.991Z,9.37
2018-09-06T14:22:45.264Z,9.00
2018-09-06T14:25:12.528Z,9.33
2018-09-06T14:27:39.659Z,10.37
2018-09-06T14:30:06.884Z,8.87
2018-09-06T14:32:33.999Z,9.13
2018-09-06T14:35:01.107Z,9.30
2018-09-06T14:37:28.387Z,9.77
2018-09-06T14:39:55.661Z,12.67
2018-09-06T14:42:22.832Z,11.90
2018-09-06T14:44:50.036Z,9.37
2018-09-06T14:47:17.157Z,9.00
2018-09-06T14:49:44.439Z,10.90
2018-09-06T14:52:11.598Z,9.43
2018-09-06T14:54:38.740Z,9.43
2018-09-06T14:57:05.875Z,10.10
2018-09-06T14:59:33.065Z,9.60
2018-09-06T15:02:00.366Z,9.83
2018-09-06T15:04:27.480Z,10.80
2018-09-06T15:06:54.687Z,10.20
2018-09-06T15:09:21.805Z,10.03
2018-09-06T15:11:48.921Z,9.97
2018-09-06T15:14:16.223Z,10.07
2018-09-06T15:16:43.337Z,10.57
2018-09-06T15:19:10.573Z,9.93
2018-09-06T15:21:37.739Z,10.60
2018-09-06T15:24:04.839Z,11.60
2018-09-06T15:26:32.105Z,10.60
2018-09-06T15:28:59.276Z,10.03
2018-09-06T15:31:26.883Z,10.73
2018-09-06T15:33:53.976Z,11.07
2018-09-06T15:36:21.236Z,12.27
2018-09-06T15:38:48.513Z,10.70
2018-09-06T15:41:15.668Z,11.53
2018-09-06T15:43:42.860Z,12.13
2018-09-06T15:46:10.248Z,11.77
2018-09-06T15:48:37.369Z,11.37
2018-09-06T15:51:04.733Z,11.77
2018-09-06T15:53:31.888Z,11.17
2018-09-06T15:55:59.095Z,11.93
2018-09-06T15:58:26.273Z,15.10
2018-09-06T16:00:53.634Z,16.03
2018-09-06T16:03:20.875Z,11.03
2018-09-06T16:05:48.052Z,10.70
2018-09-06T16:08:15.240Z,11.67
2018-09-06T16:10:42.364Z,10.73
2018-09-06T16:13:09.533Z,13.10
2018-09-06T16:15:36.780Z,11.00
2018-09-06T16:18:03.998Z,11.40
2018-09-06T16:20:31.215Z,12.00
2018-09-06T16:22:58.345Z,13.30
2018-09-06T16:25:25.475Z,11.97
2018-09-06T16:27:52.750Z,11.87
2018-09-06T16:30:19.984Z,13.13
2018-09-06T16:32:47.099Z,11.20
2018-09-06T16:35:14.240Z,11.77
2018-09-06T16:37:41.346Z,10.97
2018-09-06T16:40:08.567Z,12.20
2018-09-06T16:42:35.749Z,11.27
2018-09-06T16:45:02.944Z,10.57
2018-09-06T16:47:30.060Z,10.77
2018-09-06T16:49:57.216Z,12.07
2018-09-06T16:52:24.525Z,12.20
2018-09-06T16:54:51.676Z,10.40
2018-09-06T16:57:18.890Z,11.13
2018-09-06T16:59:46.007Z,12.30
2018-09-06T17:02:13.114Z,11.17
2018-09-06T17:04:40.596Z,11.10
2018-09-06T17:07:07.711Z,11.20
2018-09-06T17:09:34.865Z,14.00
2018-09-06T17:12:02.026Z,10.47
2018-09-06T17:14:29.160Z,14.47
2018-09-06T17:16:56.391Z,10.87
2018-09-06T17:19:23.568Z,10.93
2018-09-06T17:21:50.793Z,10.60
2018-09-06T17:24:17.892Z,12.07
2018-09-06T17:26:45.079Z,12.13
2018-09-06T17:29:12.338Z,10.87
2018-09-06T17:31:39.462Z,11.50
2018-09-06T17:34:06.720Z,11.20
2018-09-06T17:36:33.954Z,10.97
2018-09-06T17:39:01.201Z,12.63
2018-09-06T17:41:28.425Z,10.63
2018-09-06T17:43:55.581Z,11.23
2018-09-06T17:46:22.748Z,12.47
2018-09-06T17:48:49.992Z,10.63
2018-09-06T17:51:17.124Z,11.70
2018-09-06T17:53:44.405Z,11.67
2018-09-06T17:56:11.727Z,11.37
2018-09-06T17:58:38.907Z,10.87
2018-09-06T18:01:22.175Z,10.67
2018-09-06T18:03:49.525Z,10.90
2018-09-06T18:06:16.645Z,10.37
2018-09-06T18:08:43.900Z,12.20
2018-09-06T18:11:11.340Z,11.20
2018-09-06T18:13:39.952Z,11.47
2018-09-06T18:16:09.119Z,10.40
2018-09-06T18:18:36.871Z,10.20
2018-09-06T18:21:04.129Z,10.80
2018-09-06T18:23:31.349Z,12.00
2018-09-06T18:25:58.481Z,12.53
2018-09-06T18:28:25.897Z,10.53
2018-09-06T18:30:53.113Z,11.60
2018-09-06T18:33:20.287Z,11.27
2018-09-06T18:35:48.177Z,10.43
2018-09-06T18:38:15.567Z,10.70
2018-09-06T18:40:44.433Z,10.03
2018-09-06T18:43:11.571Z,10.03
2018-09-06T18:45:38.845Z,11.50
2018-09-06T18:48:06.121Z,10.83
2018-09-06T18:50:33.227Z,11.90
2018-09-06T18:53:00.525Z,11.37
2018-09-06T18:55:27.765Z,10.33
2018-09-06T18:57:55.049Z,11.40
2018-09-06T19:00:22.225Z,11.60
2018-09-06T19:02:49.393Z,11.07
2018-09-06T19:05:16.635Z,10.60
2018-09-06T19:07:43.903Z,11.30
2018-09-06T19:10:11.185Z,11.27
2018-09-06T19:12:38.300Z,11.57
2018-09-06T19:15:05.666Z,11.17
2018-09-06T19:17:33.120Z,10.47
2018-09-06T19:20:00.254Z,11.17
2018-09-06T19:22:27.684Z,11.00
2018-09-06T19:24:54.817Z,10.27
2018-09-06T19:27:21.953Z,15.13
2018-09-06T19:29:49.357Z,10.67
2018-09-06T19:32:16.457Z,11.40
2018-09-06T19:34:43.676Z,11.33
2018-09-06T19:37:10.836Z,11.57
2018-09-06T19:39:37.913Z,11.13
2018-09-06T19:42:05.196Z,10.43
2018-09-06T19:44:32.392Z,10.13
2018-09-06T19:46:59.562Z,10.13
2018-09-06T19:49:26.670Z,10.87
2018-09-06T19:51:53.856Z,12.07
2018-09-06T19:54:21.233Z,10.80
2018-09-06T19:56:48.301Z,13.30
2018-09-06T19:59:16.408Z,11.13
2018-09-06T20:01:43.533Z,12.97
2018-09-06T20:04:10.690Z,11.07
2018-09-06T20:06:37.980Z,11.40
2018-09-06T20:09:06.268Z,11.47
2018-09-06T20:11:33.512Z,12.23
2018-09-06T20:14:00.656Z,11.40
2018-09-06T20:16:27.762Z,11.13
2018-09-06T20:18:54.985Z,13.13
2018-09-06T20:21:22.139Z,11.23
2018-09-06T20:23:49.326Z,10.77
2018-09-06T20:26:16.483Z,12.10
2018-09-06T20:28:43.616Z,11.90
2018-09-06T20:31:10.876Z,12.03
2018-09-06T20:33:38.047Z,11.23
2018-09-06T20:36:05.611Z,11.63
2018-09-06T20:38:32.729Z,11.40
2018-09-06T20:40:59.864Z,12.00
2018-09-06T20:43:27.180Z,13.27
2018-09-06T20:45:54.356Z,10.90
2018-09-06T20:48:21.522Z,11.47
2018-09-06T20:50:49.732Z,11.80
2018-09-06T20:53:16.862Z,12.07
2018-09-06T20:55:44.114Z,11.50
2018-09-06T20:58:11.277Z,11.70
2018-09-06T21:00:38.468Z,12.07
2018-09-06T21:03:05.745Z,11.67
2018-09-06T21:05:32.928Z,11.03
2018-09-06T21:08:00.212Z,11.57
2018-09-06T21:10:27.397Z,14.77
2018-09-06T21:12:54.632Z,12.63
2018-09-06T21:15:21.735Z,12.23
2018-09-06T21:17:48.862Z,12.50
2018-09-06T21:20:16.136Z,12.27
2018-09-06T21:22:43.252Z,13.87
2018-09-06T21:25:10.448Z,13.13
2018-09-06T21:27:37.604Z,12.63
2018-09-06T21:30:04.817Z,16.77
2018-09-06T21:32:32.098Z,12.53
2018-09-06T21:34:59.280Z,12.90
2018-09-06T21:37:26.459Z,12.90
2018-09-06T21:39:53.660Z,12.67
2018-09-06T21:42:20.838Z,13.73
2018-09-06T21:44:48.088Z,13.07
2018-09-06T21:47:15.207Z,12.57
2018-09-06T21:49:42.436Z,13.43
2018-09-06T21:52:09.548Z,13.70
2018-09-06T21:54:36.706Z,13.27
2018-09-06T21:57:04.831Z,13.37
2018-09-06T21:59:31.952Z,12.93
2018-09-06T22:01:59.156Z,14.20
2018-09-06T22:04:26.323Z,14.23
2018-09-06T22:06:53.460Z,13.13
2018-09-06T22:09:20.701Z,14.47
2018-09-06T22:11:48.453Z,14.17
2018-09-06T22:14:15.633Z,13.30
2018-09-06T22:16:42.807Z,14.07
2018-09-06T22:19:11.213Z,14.10
2018-09-06T22:21:39.380Z,13.40
2018-09-06T22:24:06.528Z,13.17
2018-09-06T22:26:33.790Z,14.00
2018-09-06T22:29:00.919Z,14.67
2018-09-06T22:31:28.136Z,15.10
2018-09-06T22:33:55.832Z,14.07
2018-09-06T22:36:23.376Z,14.27
2018-09-06T22:38:50.998Z,14.97
2018-09-06T22:41:18.198Z,14.03
2018-09-06T22:43:45.322Z,15.30
2018-09-06T22:46:12.771Z,14.73
2018-09-06T22:48:39.915Z,12.90
2018-09-06T22:51:07.105Z,14.40
2018-09-06T22:53:34.399Z,15.67
2018-09-06T22:56:02.039Z,15.13
2018-09-06T22:58:29.420Z,14.30
2018-09-06T23:00:56.575Z,16.50
2018-09-06T23:03:29.423Z,15.53
2018-09-06T23:06:01.109Z,14.63
2018-09-06T23:08:28.207Z,15.10
2018-09-06T23:10:55.483Z,14.87
2018-09-06T23:13:22.711Z,16.07
2018-09-06T23:15:51.040Z,16.17
2018-09-06T23:18:19.733Z,16.27
2018-09-06T23:20:47.890Z,14.67
2018-09-06T23:23:15.447Z,15.23
2018-09-06T23:25:42.612Z,15.23
2018-09-06T23:28:09.708Z,16.40
2018-09-06T23:30:36.817Z,16.10
2018-09-06T23:33:04.090Z,15.93
2018-09-06T23:35:31.287Z,15.33
2018-09-06T23:37:58.439Z,17.07
2018-09-06T23:40:25.604Z,15.83
2018-09-06T23:42:52.783Z,17.13
2018-09-06T23:45:19.958Z,15.97
2018-09-06T23:47:47.132Z,15.60
2018-09-06T23:50:14.228Z,16.13
2018-09-06T23:52:41.336Z,16.47
2018-09-06T23:55:08.502Z,16.57
2018-09-06T23:57:35.665Z,18.60
